sensor_id;sensor_type;location;lat;lon;timestamp;P1;durP1;ratioP1;P2;durP2;ratioP2
9834;SDS011;4956;50.996;13.716;2022-08-19T00:01:29;15.65;;;14.05;;
9834;SDS011;4956;50.996;13.716;2022-08-19T00:04:52;15.55;;;13.95;;
9834;SDS011;4956;50.996;13.716;2022-08-19T00:08:12;18.40;;;16.60;;
9834;SDS011;4956;50.996;13.716;2022-08-19T00:11:33;17.93;;;16.23;;
9834;SDS011;4956;50.996;13.716;2022-08-19T00:14:55;16.15;;;14.60;;
9834;SDS011;4956;50.996;13.716;2022-08-19T00:18:16;17.37;;;15.77;;
9834;SDS011;4956;50.996;13.716;2022-08-19T00:21:36;17.20;;;15.07;;
9834;SDS011;4956;50.996;13.716;2022-08-19T00:24:59;20.13;;;17.88;;
9834;SDS011;4956;50.996;13.716;2022-08-19T00:28:20;19.75;;;17.60;;
9834;SDS011;4956;50.996;13.716;2022-08-19T00:31:41;17.90;;;16.20;;
9834;SDS011;4956;50.996;13.716;2022-08-19T00:35:03;20.35;;;17.70;;
9834;SDS011;4956;50.996;13.716;2022-08-19T00:38:23;18.83;;;16.80;;
9834;SDS011;4956;50.996;13.716;2022-08-19T00:41:44;18.50;;;16.70;;
9834;SDS011;4956;50.996;13.716;2022-08-19T00:45:10;19.60;;;17.60;;
9834;SDS011;4956;50.996;13.716;2022-08-19T00:48:36;18.48;;;16.45;;
9834;SDS011;4956;50.996;13.716;2022-08-19T00:52:19;18.13;;;16.33;;
9834;SDS011;4956;50.996;13.716;2022-08-19T00:55:45;22.00;;;18.67;;
9834;SDS011;4956;50.996;13.716;2022-08-19T00:59:09;21.42;;;19.02;;
9834;SDS011;4956;50.996;13.716;2022-08-19T01:02:30;20.77;;;18.67;;
9834;SDS011;4956;50.996;13.716;2022-08-19T01:05:51;21.08;;;18.83;;
9834;SDS011;4956;50.996;13.716;2022-08-19T01:09:14;21.15;;;18.98;;
9834;SDS011;4956;50.996;13.716;2022-08-19T01:12:34;18.97;;;17.07;;
9834;SDS011;4956;50.996;13.716;2022-08-19T01:15:56;21.77;;;19.58;;
9834;SDS011;4956;50.996;13.716;2022-08-19T01:19:26;21.45;;;19.25;;
9834;SDS011;4956;50.996;13.716;2022-08-19T01:22:55;19.23;;;17.27;;
9834;SDS011;4956;50.996;13.716;2022-08-19T01:26:18;21.02;;;18.90;;
9834;SDS011;4956;50.996;13.716;2022-08-19T01:29:40;19.45;;;17.42;;
9834;SDS011;4956;50.996;13.716;2022-08-19T01:33:01;21.52;;;19.33;;
9834;SDS011;4956;50.996;13.716;2022-08-19T01:36:23;20.90;;;18.80;;
9834;SDS011;4956;50.996;13.716;2022-08-19T01:39:46;19.60;;;17.40;;
9834;SDS011;4956;50.996;13.716;2022-08-19T01:43:07;19.98;;;17.92;;
9834;SDS011;4956;50.996;13.716;2022-08-19T01:46:27;21.95;;;19.50;;
9834;SDS011;4956;50.996;13.716;2022-08-19T01:49:48;20.60;;;18.42;;
9834;SDS011;4956;50.996;13.716;2022-08-19T01:53:09;19.50;;;17.60;;
9834;SDS011;4956;50.996;13.716;2022-08-19T01:56:31;20.25;;;18.25;;
9834;SDS011;4956;50.996;13.716;2022-08-19T01:59:51;21.38;;;19.27;;
9834;SDS011;4956;50.996;13.716;2022-08-19T02:03:11;23.47;;;20.30;;
9834;SDS011;4956;50.996;13.716;2022-08-19T02:06:32;21.75;;;19.55;;
9834;SDS011;4956;50.996;13.716;2022-08-19T02:09:53;24.80;;;21.73;;
9834;SDS011;4956;50.996;13.716;2022-08-19T02:13:13;22.00;;;19.70;;
9834;SDS011;4956;50.996;13.716;2022-08-19T02:16:34;21.85;;;19.55;;
9834;SDS011;4956;50.996;13.716;2022-08-19T02:19:55;21.33;;;19.25;;
9834;SDS011;4956;50.996;13.716;2022-08-19T02:23:16;19.67;;;17.75;;
9834;SDS011;4956;50.996;13.716;2022-08-19T02:26:37;19.08;;;17.17;;
9834;SDS011;4956;50.996;13.716;2022-08-19T02:29:57;20.13;;;18.13;;
9834;SDS011;4956;50.996;13.716;2022-08-19T02:33:18;21.92;;;19.73;;
9834;SDS011;4956;50.996;13.716;2022-08-19T02:36:38;20.17;;;18.07;;
9834;SDS011;4956;50.996;13.716;2022-08-19T02:39:58;23.77;;;21.47;;
9834;SDS011;4956;50.996;13.716;2022-08-19T02:43:19;23.77;;;21.27;;
9834;SDS011;4956;50.996;13.716;2022-08-19T02:46:40;23.40;;;20.92;;
9834;SDS011;4956;50.996;13.716;2022-08-19T02:50:01;22.73;;;20.33;;
9834;SDS011;4956;50.996;13.716;2022-08-19T02:53:22;21.77;;;19.58;;
9834;SDS011;4956;50.996;13.716;2022-08-19T02:56:44;23.67;;;21.17;;
9834;SDS011;4956;50.996;13.716;2022-08-19T03:00:06;22.48;;;20.25;;
9834;SDS011;4956;50.996;13.716;2022-08-19T03:03:27;23.52;;;19.85;;
9834;SDS011;4956;50.996;13.716;2022-08-19T03:06:48;24.10;;;21.75;;
9834;SDS011;4956;50.996;13.716;2022-08-19T03:10:09;23.13;;;20.65;;
9834;SDS011;4956;50.996;13.716;2022-08-19T03:13:29;24.30;;;21.90;;
9834;SDS011;4956;50.996;13.716;2022-08-19T03:16:50;22.70;;;20.40;;
9834;SDS011;4956;50.996;13.716;2022-08-19T03:20:11;24.73;;;21.95;;
9834;SDS011;4956;50.996;13.716;2022-08-19T03:23:32;22.67;;;20.17;;
9834;SDS011;4956;50.996;13.716;2022-08-19T03:26:55;20.27;;;18.27;;
9834;SDS011;4956;50.996;13.716;2022-08-19T03:30:17;23.08;;;20.70;;
9834;SDS011;4956;50.996;13.716;2022-08-19T03:33:38;22.67;;;20.27;;
9834;SDS011;4956;50.996;13.716;2022-08-19T03:36:59;21.25;;;19.17;;
9834;SDS011;4956;50.996;13.716;2022-08-19T03:40:24;22.77;;;20.38;;
9834;SDS011;4956;50.996;13.716;2022-08-19T03:43:45;22.90;;;20.70;;
9834;SDS011;4956;50.996;13.716;2022-08-19T03:47:09;23.40;;;21.10;;
9834;SDS011;4956;50.996;13.716;2022-08-19T03:50:39;24.27;;;21.73;;
9834;SDS011;4956;50.996;13.716;2022-08-19T03:54:00;23.30;;;20.90;;
9834;SDS011;4956;50.996;13.716;2022-08-19T03:57:22;23.95;;;21.30;;
9834;SDS011;4956;50.996;13.716;2022-08-19T04:00:42;23.67;;;21.27;;
9834;SDS011;4956;50.996;13.716;2022-08-19T04:04:03;25.85;;;23.25;;
9834;SDS011;4956;50.996;13.716;2022-08-19T04:07:23;23.20;;;20.77;;
9834;SDS011;4956;50.996;13.716;2022-08-19T04:10:44;23.70;;;21.20;;
9834;SDS011;4956;50.996;13.716;2022-08-19T04:14:05;24.27;;;21.13;;
9834;SDS011;4956;50.996;13.716;2022-08-19T04:17:25;24.63;;;21.90;;
9834;SDS011;4956;50.996;13.716;2022-08-19T04:20:46;27.92;;;24.90;;
9834;SDS011;4956;50.996;13.716;2022-08-19T04:24:11;25.63;;;22.92;;
9834;SDS011;4956;50.996;13.716;2022-08-19T04:27:31;23.50;;;21.10;;
9834;SDS011;4956;50.996;13.716;2022-08-19T04:30:54;22.95;;;20.60;;
9834;SDS011;4956;50.996;13.716;2022-08-19T04:34:15;25.63;;;23.02;;
9834;SDS011;4956;50.996;13.716;2022-08-19T04:37:37;23.65;;;21.15;;
9834;SDS011;4956;50.996;13.716;2022-08-19T04:40:58;22.10;;;19.73;;
9834;SDS011;4956;50.996;13.716;2022-08-19T04:44:37;22.63;;;20.23;;
9834;SDS011;4956;50.996;13.716;2022-08-19T04:47:57;23.87;;;21.37;;
9834;SDS011;4956;50.996;13.716;2022-08-19T04:51:17;21.40;;;19.23;;
9834;SDS011;4956;50.996;13.716;2022-08-19T04:54:38;22.77;;;20.48;;
9834;SDS011;4956;50.996;13.716;2022-08-19T04:57:58;24.47;;;21.60;;
9834;SDS011;4956;50.996;13.716;2022-08-19T05:01:21;24.80;;;22.30;;
9834;SDS011;4956;50.996;13.716;2022-08-19T05:04:45;26.15;;;23.38;;
9834;SDS011;4956;50.996;13.716;2022-08-19T05:08:05;25.88;;;23.10;;
9834;SDS011;4956;50.996;13.716;2022-08-19T05:11:28;25.48;;;22.80;;
9834;SDS011;4956;50.996;13.716;2022-08-19T05:14:50;23.17;;;20.92;;
9834;SDS011;4956;50.996;13.716;2022-08-19T05:18:11;25.08;;;22.23;;
9834;SDS011;4956;50.996;13.716;2022-08-19T05:22:01;24.20;;;21.70;;
9834;SDS011;4956;50.996;13.716;2022-08-19T05:25:40;23.80;;;21.25;;
9834;SDS011;4956;50.996;13.716;2022-08-19T05:29:00;29.48;;;25.35;;
9834;SDS011;4956;50.996;13.716;2022-08-19T05:32:21;29.27;;;22.63;;
9834;SDS011;4956;50.996;13.716;2022-08-19T05:35:43;24.90;;;22.30;;
9834;SDS011;4956;50.996;13.716;2022-08-19T05:39:04;22.60;;;20.30;;
9834;SDS011;4956;50.996;13.716;2022-08-19T05:42:24;23.27;;;20.70;;
9834;SDS011;4956;50.996;13.716;2022-08-19T05:45:45;23.38;;;20.90;;
9834;SDS011;4956;50.996;13.716;2022-08-19T05:49:06;22.90;;;20.50;;
9834;SDS011;4956;50.996;13.716;2022-08-19T05:52:26;24.70;;;21.58;;
9834;SDS011;4956;50.996;13.716;2022-08-19T05:55:47;23.75;;;21.13;;
9834;SDS011;4956;50.996;13.716;2022-08-19T05:59:08;23.10;;;20.67;;
9834;SDS011;4956;50.996;13.716;2022-08-19T06:02:30;21.05;;;18.95;;
9834;SDS011;4956;50.996;13.716;2022-08-19T06:05:50;22.47;;;19.50;;
9834;SDS011;4956;50.996;13.716;2022-08-19T06:09:10;23.00;;;18.20;;
9834;SDS011;4956;50.996;13.716;2022-08-19T06:12:31;19.57;;;17.47;;
9834;SDS011;4956;50.996;13.716;2022-08-19T06:15:54;16.83;;;15.23;;
9834;SDS011;4956;50.996;13.716;2022-08-19T06:19:16;16.73;;;14.93;;
9834;SDS011;4956;50.996;13.716;2022-08-19T06:22:38;17.40;;;15.65;;
9834;SDS011;4956;50.996;13.716;2022-08-19T06:25:59;16.77;;;15.07;;
9834;SDS011;4956;50.996;13.716;2022-08-19T06:29:21;16.07;;;14.30;;
9834;SDS011;4956;50.996;13.716;2022-08-19T06:32:43;14.27;;;12.98;;
9834;SDS011;4956;50.996;13.716;2022-08-19T06:36:04;14.38;;;12.98;;
9834;SDS011;4956;50.996;13.716;2022-08-19T06:39:25;14.18;;;12.65;;
9834;SDS011;4956;50.996;13.716;2022-08-19T06:42:46;13.38;;;11.98;;
9834;SDS011;4956;50.996;13.716;2022-08-19T06:46:09;13.40;;;12.10;;
9834;SDS011;4956;50.996;13.716;2022-08-19T06:49:31;13.95;;;12.60;;
9834;SDS011;4956;50.996;13.716;2022-08-19T06:52:51;14.35;;;12.95;;
9834;SDS011;4956;50.996;13.716;2022-08-19T06:56:15;13.73;;;12.27;;
9834;SDS011;4956;50.996;13.716;2022-08-19T06:59:37;14.23;;;12.82;;
9834;SDS011;4956;50.996;13.716;2022-08-19T07:02:57;15.87;;;14.17;;
9834;SDS011;4956;50.996;13.716;2022-08-19T07:06:18;16.08;;;14.45;;
9834;SDS011;4956;50.996;13.716;2022-08-19T07:09:41;15.70;;;14.02;;
9834;SDS011;4956;50.996;13.716;2022-08-19T07:13:02;16.75;;;14.95;;
9834;SDS011;4956;50.996;13.716;2022-08-19T07:16:23;17.50;;;15.80;;
9834;SDS011;4956;50.996;13.716;2022-08-19T07:19:44;17.13;;;15.40;;
9834;SDS011;4956;50.996;13.716;2022-08-19T07:23:04;17.20;;;15.00;;
9834;SDS011;4956;50.996;13.716;2022-08-19T07:26:29;18.63;;;16.80;;
9834;SDS011;4956;50.996;13.716;2022-08-19T07:29:52;17.30;;;15.60;;
9834;SDS011;4956;50.996;13.716;2022-08-19T07:33:13;16.02;;;14.45;;
9834;SDS011;4956;50.996;13.716;2022-08-19T07:36:34;19.03;;;16.47;;
9834;SDS011;4956;50.996;13.716;2022-08-19T07:39:56;18.42;;;16.55;;
9834;SDS011;4956;50.996;13.716;2022-08-19T07:43:16;18.65;;;16.67;;
9834;SDS011;4956;50.996;13.716;2022-08-19T07:46:42;21.42;;;16.95;;
9834;SDS011;4956;50.996;13.716;2022-08-19T07:50:09;18.20;;;16.27;;
9834;SDS011;4956;50.996;13.716;2022-08-19T07:53:31;18.42;;;16.52;;
9834;SDS011;4956;50.996;13.716;2022-08-19T07:56:52;19.00;;;17.10;;
9834;SDS011;4956;50.996;13.716;2022-08-19T08:00:13;17.85;;;14.82;;
9834;SDS011;4956;50.996;13.716;2022-08-19T08:03:37;19.05;;;17.02;;
9834;SDS011;4956;50.996;13.716;2022-08-19T08:07:16;21.17;;;18.80;;
9834;SDS011;4956;50.996;13.716;2022-08-19T08:10:56;20.40;;;17.30;;
9834;SDS011;4956;50.996;13.716;2022-08-19T08:14:20;18.85;;;16.23;;
9834;SDS011;4956;50.996;13.716;2022-08-19T08:17:42;18.52;;;16.63;;
9834;SDS011;4956;50.996;13.716;2022-08-19T08:21:03;19.52;;;16.40;;
9834;SDS011;4956;50.996;13.716;2022-08-19T08:24:24;19.30;;;17.20;;
9834;SDS011;4956;50.996;13.716;2022-08-19T08:27:45;19.58;;;17.58;;
9834;SDS011;4956;50.996;13.716;2022-08-19T08:31:06;26.13;;;20.55;;
9834;SDS011;4956;50.996;13.716;2022-08-19T08:34:27;20.45;;;18.08;;
9834;SDS011;4956;50.996;13.716;2022-08-19T08:37:48;18.50;;;16.57;;
9834;SDS011;4956;50.996;13.716;2022-08-19T08:41:28;22.73;;;19.45;;
9834;SDS011;4956;50.996;13.716;2022-08-19T08:44:55;21.98;;;18.92;;
9834;SDS011;4956;50.996;13.716;2022-08-19T08:48:19;20.98;;;18.10;;
9834;SDS011;4956;50.996;13.716;2022-08-19T08:51:46;18.75;;;16.75;;
9834;SDS011;4956;50.996;13.716;2022-08-19T08:55:10;19.60;;;17.50;;
9834;SDS011;4956;50.996;13.716;2022-08-19T08:58:36;18.15;;;16.27;;
9834;SDS011;4956;50.996;13.716;2022-08-19T09:02:03;21.00;;;17.58;;
9834;SDS011;4956;50.996;13.716;2022-08-19T09:05:25;20.83;;;18.58;;
9834;SDS011;4956;50.996;13.716;2022-08-19T09:16:12;16.45;;;14.68;;
9834;SDS011;4956;50.996;13.716;2022-08-19T09:19:46;16.40;;;14.70;;
9834;SDS011;4956;50.996;13.716;2022-08-19T09:23:09;15.55;;;13.70;;
9834;SDS011;4956;50.996;13.716;2022-08-19T09:26:31;13.65;;;12.35;;
9834;SDS011;4956;50.996;13.716;2022-08-19T09:29:52;14.40;;;12.50;;
9834;SDS011;4956;50.996;13.716;2022-08-19T09:33:13;13.80;;;12.40;;
9834;SDS011;4956;50.996;13.716;2022-08-19T09:36:33;15.20;;;13.70;;
9834;SDS011;4956;50.996;13.716;2022-08-19T09:39:56;13.27;;;12.07;;
9834;SDS011;4956;50.996;13.716;2022-08-19T09:43:16;16.73;;;15.13;;
9834;SDS011;4956;50.996;13.716;2022-08-19T09:46:36;16.47;;;14.77;;
9834;SDS011;4956;50.996;13.716;2022-08-19T09:49:57;14.63;;;13.20;;
9834;SDS011;4956;50.996;13.716;2022-08-19T09:53:18;15.43;;;13.80;;
9834;SDS011;4956;50.996;13.716;2022-08-19T09:56:42;15.93;;;14.32;;
9834;SDS011;4956;50.996;13.716;2022-08-19T10:00:05;15.73;;;14.15;;
9834;SDS011;4956;50.996;13.716;2022-08-19T10:03:28;17.00;;;15.20;;
9834;SDS011;4956;50.996;13.716;2022-08-19T10:06:49;15.30;;;13.70;;
9834;SDS011;4956;50.996;13.716;2022-08-19T10:10:11;14.43;;;12.90;;
9834;SDS011;4956;50.996;13.716;2022-08-19T10:13:32;12.75;;;11.52;;
9834;SDS011;4956;50.996;13.716;2022-08-19T10:16:55;12.13;;;11.02;;
9834;SDS011;4956;50.996;13.716;2022-08-19T10:20:16;12.02;;;10.75;;
9834;SDS011;4956;50.996;13.716;2022-08-19T10:23:37;12.23;;;11.03;;
9834;SDS011;4956;50.996;13.716;2022-08-19T10:26:59;11.73;;;10.63;;
9834;SDS011;4956;50.996;13.716;2022-08-19T10:30:20;11.32;;;10.23;;
9834;SDS011;4956;50.996;13.716;2022-08-19T10:33:41;11.75;;;10.55;;
9834;SDS011;4956;50.996;13.716;2022-08-19T10:37:02;10.90;;;9.80;;
9834;SDS011;4956;50.996;13.716;2022-08-19T10:40:26;11.50;;;10.30;;
9834;SDS011;4956;50.996;13.716;2022-08-19T10:43:47;11.15;;;9.88;;
9834;SDS011;4956;50.996;13.716;2022-08-19T10:47:08;12.02;;;9.07;;
9834;SDS011;4956;50.996;13.716;2022-08-19T10:50:28;8.43;;;7.63;;
9834;SDS011;4956;50.996;13.716;2022-08-19T10:54:07;8.18;;;7.28;;
9834;SDS011;4956;50.996;13.716;2022-08-19T10:57:31;7.57;;;6.90;;
9834;SDS011;4956;50.996;13.716;2022-08-19T11:00:55;8.02;;;7.22;;
9834;SDS011;4956;50.996;13.716;2022-08-19T11:04:17;6.88;;;6.13;;
9834;SDS011;4956;50.996;13.716;2022-08-19T11:07:38;6.93;;;6.25;;
9834;SDS011;4956;50.996;13.716;2022-08-19T11:10:59;6.20;;;5.63;;
9834;SDS011;4956;50.996;13.716;2022-08-19T11:14:21;5.43;;;4.93;;
9834;SDS011;4956;50.996;13.716;2022-08-19T11:17:41;5.10;;;4.70;;
9834;SDS011;4956;50.996;13.716;2022-08-19T11:21:10;5.72;;;5.22;;
9834;SDS011;4956;50.996;13.716;2022-08-19T11:24:32;5.90;;;5.40;;
9834;SDS011;4956;50.996;13.716;2022-08-19T11:27:52;5.88;;;5.38;;
9834;SDS011;4956;50.996;13.716;2022-08-19T11:31:14;5.50;;;5.00;;
9834;SDS011;4956;50.996;13.716;2022-08-19T11:34:36;6.97;;;6.38;;
9834;SDS011;4956;50.996;13.716;2022-08-19T11:37:56;6.85;;;6.22;;
9834;SDS011;4956;50.996;13.716;2022-08-19T11:41:21;6.55;;;5.95;;
9834;SDS011;4956;50.996;13.716;2022-08-19T11:44:45;7.80;;;7.10;;
9834;SDS011;4956;50.996;13.716;2022-08-19T11:48:06;8.85;;;8.05;;
9834;SDS011;4956;50.996;13.716;2022-08-19T11:51:27;7.70;;;7.07;;
9834;SDS011;4956;50.996;13.716;2022-08-19T11:54:47;9.23;;;8.43;;
9834;SDS011;4956;50.996;13.716;2022-08-19T11:58:08;9.85;;;9.02;;
9834;SDS011;4956;50.996;13.716;2022-08-19T12:01:30;12.35;;;11.05;;
9834;SDS011;4956;50.996;13.716;2022-08-19T12:04:51;16.48;;;14.77;;
9834;SDS011;4956;50.996;13.716;2022-08-19T12:08:11;12.67;;;11.37;;
9834;SDS011;4956;50.996;13.716;2022-08-19T12:11:32;14.32;;;12.93;;
9834;SDS011;4956;50.996;13.716;2022-08-19T12:14:53;15.65;;;14.15;;
9834;SDS011;4956;50.996;13.716;2022-08-19T12:18:18;18.02;;;14.95;;
9834;SDS011;4956;50.996;13.716;2022-08-19T12:21:38;16.02;;;14.43;;
9834;SDS011;4956;50.996;13.716;2022-08-19T12:24:58;16.27;;;14.68;;
9834;SDS011;4956;50.996;13.716;2022-08-19T12:28:19;17.13;;;15.43;;
9834;SDS011;4956;50.996;13.716;2022-08-19T12:31:40;17.70;;;15.90;;
9834;SDS011;4956;50.996;13.716;2022-08-19T12:35:00;20.50;;;18.37;;
9834;SDS011;4956;50.996;13.716;2022-08-19T12:38:21;22.38;;;19.55;;
9834;SDS011;4956;50.996;13.716;2022-08-19T12:41:44;21.67;;;18.65;;
9834;SDS011;4956;50.996;13.716;2022-08-19T12:45:04;20.83;;;18.63;;
9834;SDS011;4956;50.996;13.716;2022-08-19T12:48:25;20.45;;;18.35;;
9834;SDS011;4956;50.996;13.716;2022-08-19T12:51:45;22.43;;;18.93;;
9834;SDS011;4956;50.996;13.716;2022-08-19T12:55:06;21.33;;;19.02;;
9834;SDS011;4956;50.996;13.716;2022-08-19T12:58:27;24.13;;;21.45;;
9834;SDS011;4956;50.996;13.716;2022-08-19T13:01:48;22.50;;;19.90;;
9834;SDS011;4956;50.996;13.716;2022-08-19T13:05:10;21.13;;;18.80;;
9834;SDS011;4956;50.996;13.716;2022-08-19T13:08:31;22.58;;;20.17;;
9834;SDS011;4956;50.996;13.716;2022-08-19T13:11:52;24.05;;;21.02;;
9834;SDS011;4956;50.996;13.716;2022-08-19T13:15:12;24.43;;;21.73;;
9834;SDS011;4956;50.996;13.716;2022-08-19T13:18:33;26.88;;;22.27;;
9834;SDS011;4956;50.996;13.716;2022-08-19T13:21:53;26.00;;;22.43;;
9834;SDS011;4956;50.996;13.716;2022-08-19T13:25:15;24.63;;;21.27;;
9834;SDS011;4956;50.996;13.716;2022-08-19T13:28:37;29.33;;;25.20;;
9834;SDS011;4956;50.996;13.716;2022-08-19T13:32:17;26.15;;;23.15;;
9834;SDS011;4956;50.996;13.716;2022-08-19T13:35:56;29.10;;;25.95;;
9834;SDS011;4956;50.996;13.716;2022-08-19T13:39:18;24.83;;;22.25;;
9834;SDS011;4956;50.996;13.716;2022-08-19T13:42:39;24.90;;;22.25;;
9834;SDS011;4956;50.996;13.716;2022-08-19T13:46:00;25.88;;;23.10;;
9834;SDS011;4956;50.996;13.716;2022-08-19T13:49:29;28.60;;;25.55;;
9834;SDS011;4956;50.996;13.716;2022-08-19T13:52:51;34.95;;;30.30;;
9834;SDS011;4956;50.996;13.716;2022-08-19T13:56:13;29.02;;;25.45;;
9834;SDS011;4956;50.996;13.716;2022-08-19T13:59:35;27.75;;;24.17;;
9834;SDS011;4956;50.996;13.716;2022-08-19T14:02:56;33.05;;;28.55;;
9834;SDS011;4956;50.996;13.716;2022-08-19T14:06:16;35.50;;;28.92;;
9834;SDS011;4956;50.996;13.716;2022-08-19T14:09:37;37.00;;;30.43;;
9834;SDS011;4956;50.996;13.716;2022-08-19T14:12:58;36.67;;;29.17;;
9834;SDS011;4956;50.996;13.716;2022-08-19T14:16:20;32.60;;;26.63;;
9834;SDS011;4956;50.996;13.716;2022-08-19T14:19:41;36.83;;;29.42;;
9834;SDS011;4956;50.996;13.716;2022-08-19T14:23:02;33.85;;;27.73;;
9834;SDS011;4956;50.996;13.716;2022-08-19T14:26:23;30.95;;;25.45;;
9834;SDS011;4956;50.996;13.716;2022-08-19T14:29:43;29.00;;;24.23;;
9834;SDS011;4956;50.996;13.716;2022-08-19T14:33:12;34.67;;;28.75;;
9834;SDS011;4956;50.996;13.716;2022-08-19T14:36:33;37.55;;;30.85;;
9834;SDS011;4956;50.996;13.716;2022-08-19T14:39:54;34.15;;;28.45;;
9834;SDS011;4956;50.996;13.716;2022-08-19T14:43:14;39.43;;;30.87;;
9834;SDS011;4956;50.996;13.716;2022-08-19T14:46:38;37.45;;;29.67;;
9834;SDS011;4956;50.996;13.716;2022-08-19T14:49:59;37.03;;;30.55;;
9834;SDS011;4956;50.996;13.716;2022-08-19T14:53:19;33.83;;;28.80;;
9834;SDS011;4956;50.996;13.716;2022-08-19T14:56:39;31.27;;;26.57;;
9834;SDS011;4956;50.996;13.716;2022-08-19T15:00:00;33.13;;;28.08;;
9834;SDS011;4956;50.996;13.716;2022-08-19T15:03:20;31.10;;;27.38;;
9834;SDS011;4956;50.996;13.716;2022-08-19T15:06:40;33.67;;;28.67;;
9834;SDS011;4956;50.996;13.716;2022-08-19T15:10:11;33.33;;;27.27;;
9834;SDS011;4956;50.996;13.716;2022-08-19T15:13:32;32.60;;;26.75;;
9834;SDS011;4956;50.996;13.716;2022-08-19T15:16:53;35.47;;;27.88;;
9834;SDS011;4956;50.996;13.716;2022-08-19T15:20:15;36.67;;;30.42;;
9834;SDS011;4956;50.996;13.716;2022-08-19T15:23:37;26.98;;;23.90;;
9834;SDS011;4956;50.996;13.716;2022-08-19T15:26:58;32.13;;;24.85;;
9834;SDS011;4956;50.996;13.716;2022-08-19T15:30:20;29.35;;;25.92;;
9834;SDS011;4956;50.996;13.716;2022-08-19T15:33:43;45.78;;;34.78;;
9834;SDS011;4956;50.996;13.716;2022-08-19T15:37:04;59.58;;;42.55;;
9834;SDS011;4956;50.996;13.716;2022-08-19T15:40:25;31.83;;;27.42;;
9834;SDS011;4956;50.996;13.716;2022-08-19T15:43:46;28.60;;;24.25;;
9834;SDS011;4956;50.996;13.716;2022-08-19T15:47:07;32.28;;;27.77;;
9834;SDS011;4956;50.996;13.716;2022-08-19T15:50:28;33.15;;;28.70;;
9834;SDS011;4956;50.996;13.716;2022-08-19T15:53:50;35.20;;;27.95;;
9834;SDS011;4956;50.996;13.716;2022-08-19T15:57:10;30.80;;;27.48;;
9834;SDS011;4956;50.996;13.716;2022-08-19T16:00:46;28.70;;;23.95;;
9834;SDS011;4956;50.996;13.716;2022-08-19T16:04:25;28.30;;;24.88;;
9834;SDS011;4956;50.996;13.716;2022-08-19T16:08:04;32.58;;;26.40;;
9834;SDS011;4956;50.996;13.716;2022-08-19T16:11:25;25.38;;;22.63;;
9834;SDS011;4956;50.996;13.716;2022-08-19T16:14:49;24.58;;;21.65;;
9834;SDS011;4956;50.996;13.716;2022-08-19T16:18:09;25.57;;;22.77;;
9834;SDS011;4956;50.996;13.716;2022-08-19T16:21:30;27.45;;;23.92;;
9834;SDS011;4956;50.996;13.716;2022-08-19T16:24:53;31.05;;;26.27;;
9834;SDS011;4956;50.996;13.716;2022-08-19T16:28:15;24.45;;;21.85;;
9834;SDS011;4956;50.996;13.716;2022-08-19T16:31:36;24.95;;;22.27;;
9834;SDS011;4956;50.996;13.716;2022-08-19T16:34:56;32.15;;;27.30;;
9834;SDS011;4956;50.996;13.716;2022-08-19T16:38:17;29.87;;;25.63;;
9834;SDS011;4956;50.996;13.716;2022-08-19T16:41:37;31.63;;;27.30;;
9834;SDS011;4956;50.996;13.716;2022-08-19T16:44:59;25.05;;;22.27;;
9834;SDS011;4956;50.996;13.716;2022-08-19T16:48:19;28.03;;;24.67;;
9834;SDS011;4956;50.996;13.716;2022-08-19T16:51:44;26.25;;;23.42;;
9834;SDS011;4956;50.996;13.716;2022-08-19T16:55:05;24.58;;;21.65;;
9834;SDS011;4956;50.996;13.716;2022-08-19T16:58:28;23.48;;;20.98;;
9834;SDS011;4956;50.996;13.716;2022-08-19T17:01:50;28.17;;;24.42;;
9834;SDS011;4956;50.996;13.716;2022-08-19T17:05:11;23.83;;;20.77;;
9834;SDS011;4956;50.996;13.716;2022-08-19T17:08:31;24.57;;;21.20;;
9834;SDS011;4956;50.996;13.716;2022-08-19T17:11:51;23.70;;;20.67;;
9834;SDS011;4956;50.996;13.716;2022-08-19T17:15:12;28.42;;;23.35;;
9834;SDS011;4956;50.996;13.716;2022-08-19T17:18:32;22.58;;;19.90;;
9834;SDS011;4956;50.996;13.716;2022-08-19T17:21:52;27.50;;;22.83;;
9834;SDS011;4956;50.996;13.716;2022-08-19T17:25:13;27.13;;;24.23;;
9834;SDS011;4956;50.996;13.716;2022-08-19T17:28:34;28.05;;;24.83;;
9834;SDS011;4956;50.996;13.716;2022-08-19T17:31:54;25.77;;;21.60;;
9834;SDS011;4956;50.996;13.716;2022-08-19T17:35:14;29.33;;;24.47;;
9834;SDS011;4956;50.996;13.716;2022-08-19T17:38:39;27.17;;;24.17;;
9834;SDS011;4956;50.996;13.716;2022-08-19T17:42:00;28.37;;;24.00;;
9834;SDS011;4956;50.996;13.716;2022-08-19T17:45:20;24.97;;;21.90;;
9834;SDS011;4956;50.996;13.716;2022-08-19T17:48:41;21.15;;;18.90;;
9834;SDS011;4956;50.996;13.716;2022-08-19T17:52:01;24.85;;;22.15;;
9834;SDS011;4956;50.996;13.716;2022-08-19T17:55:22;20.55;;;17.83;;
9834;SDS011;4956;50.996;13.716;2022-08-19T17:58:43;21.67;;;19.38;;
9834;SDS011;4956;50.996;13.716;2022-08-19T18:02:04;19.67;;;17.58;;
9834;SDS011;4956;50.996;13.716;2022-08-19T18:05:26;21.08;;;18.70;;
9834;SDS011;4956;50.996;13.716;2022-08-19T18:08:48;21.10;;;18.80;;
9834;SDS011;4956;50.996;13.716;2022-08-19T18:12:10;22.98;;;20.38;;
9834;SDS011;4956;50.996;13.716;2022-08-19T18:15:31;21.10;;;18.60;;
9834;SDS011;4956;50.996;13.716;2022-08-19T18:18:51;24.77;;;20.90;;
9834;SDS011;4956;50.996;13.716;2022-08-19T18:25:49;18.38;;;16.48;;
9834;SDS011;4956;50.996;13.716;2022-08-19T18:29:09;20.92;;;18.52;;
9834;SDS011;4956;50.996;13.716;2022-08-19T18:32:31;20.27;;;18.08;;
9834;SDS011;4956;50.996;13.716;2022-08-19T18:35:54;21.40;;;18.75;;
9834;SDS011;4956;50.996;13.716;2022-08-19T18:39:14;21.37;;;19.07;;
9834;SDS011;4956;50.996;13.716;2022-08-19T18:42:53;24.30;;;20.63;;
9834;SDS011;4956;50.996;13.716;2022-08-19T18:46:32;21.73;;;19.30;;
9834;SDS011;4956;50.996;13.716;2022-08-19T18:50:11;20.45;;;18.25;;
9834;SDS011;4956;50.996;13.716;2022-08-19T18:53:33;22.63;;;18.33;;
9834;SDS011;4956;50.996;13.716;2022-08-19T18:56:55;22.33;;;19.58;;
9834;SDS011;4956;50.996;13.716;2022-08-19T19:00:16;24.63;;;21.13;;
9834;SDS011;4956;50.996;13.716;2022-08-19T19:03:37;28.67;;;23.95;;
9834;SDS011;4956;50.996;13.716;2022-08-19T19:07:00;26.55;;;21.92;;
9834;SDS011;4956;50.996;13.716;2022-08-19T19:10:21;27.48;;;23.70;;
9834;SDS011;4956;50.996;13.716;2022-08-19T19:13:41;26.87;;;22.70;;
9834;SDS011;4956;50.996;13.716;2022-08-19T19:17:06;30.77;;;24.80;;
9834;SDS011;4956;50.996;13.716;2022-08-19T19:20:30;28.38;;;23.95;;
9834;SDS011;4956;50.996;13.716;2022-08-19T19:23:52;32.78;;;24.95;;
9834;SDS011;4956;50.996;13.716;2022-08-19T19:27:14;28.55;;;24.35;;
9834;SDS011;4956;50.996;13.716;2022-08-19T19:30:35;27.88;;;24.38;;
9834;SDS011;4956;50.996;13.716;2022-08-19T19:33:55;28.07;;;24.07;;
9834;SDS011;4956;50.996;13.716;2022-08-19T19:37:15;30.73;;;26.85;;
9834;SDS011;4956;50.996;13.716;2022-08-19T19:40:36;31.88;;;25.95;;
9834;SDS011;4956;50.996;13.716;2022-08-19T19:43:56;30.85;;;26.17;;
9834;SDS011;4956;50.996;13.716;2022-08-19T19:47:20;30.10;;;25.05;;
9834;SDS011;4956;50.996;13.716;2022-08-19T19:50:46;30.60;;;25.63;;
9834;SDS011;4956;50.996;13.716;2022-08-19T19:54:07;31.33;;;26.38;;
9834;SDS011;4956;50.996;13.716;2022-08-19T19:57:32;30.15;;;25.58;;
9834;SDS011;4956;50.996;13.716;2022-08-19T20:00:52;29.43;;;24.57;;
9834;SDS011;4956;50.996;13.716;2022-08-19T20:04:13;31.45;;;26.83;;
9834;SDS011;4956;50.996;13.716;2022-08-19T20:07:34;30.48;;;23.67;;
9834;SDS011;4956;50.996;13.716;2022-08-19T20:11:23;29.55;;;24.58;;
9834;SDS011;4956;50.996;13.716;2022-08-19T20:15:05;27.80;;;23.48;;